sensor_id;sensor_type;location;lat;lon;timestamp;temperature;humidity
51476;DHT22;37554;50.362;7.568;2024-03-02T00:00:58;15.30;50.60
51476;DHT22;37554;50.362;7.568;2024-03-02T00:03:24;15.30;50.70
51476;DHT22;37554;50.362;7.568;2024-03-02T00:05:50;15.30;50.70
51476;DHT22;37554;50.362;7.568;2024-03-02T00:08:23;15.30;50.70
51476;DHT22;37554;50.362;7.568;2024-03-02T00:10:57;15.30;50.80
51476;DHT22;37554;50.362;7.568;2024-03-02T00:13:23;15.30;50.80
51476;DHT22;37554;50.362;7.568;2024-03-02T00:15:54;15.30;50.80
51476;DHT22;37554;50.362;7.568;2024-03-02T00:18:23;15.30;50.80
51476;DHT22;37554;50.362;7.568;2024-03-02T00:20:55;15.30;50.90
51476;DHT22;37554;50.362;7.568;2024-03-02T00:23:22;15.20;50.90
51476;DHT22;37554;50.362;7.568;2024-03-02T00:25:49;15.20;50.90
51476;DHT22;37554;50.362;7.568;2024-03-02T00:28:29;15.20;50.90
51476;DHT22;37554;50.362;7.568;2024-03-02T00:33:25;15.20;50.90
51476;DHT22;37554;50.362;7.568;2024-03-02T00:35:51;15.30;51.00
51476;DHT22;37554;50.362;7.568;2024-03-02T00:38:17;15.20;50.90
51476;DHT22;37554;50.362;7.568;2024-03-02T00:40:44;15.20;50.90
51476;DHT22;37554;50.362;7.568;2024-03-02T00:43:38;15.20;50.90
51476;DHT22;37554;50.362;7.568;2024-03-02T00:46:06;15.20;51.10
51476;DHT22;37554;50.362;7.568;2024-03-02T00:48:32;15.20;51.00
51476;DHT22;37554;50.362;7.568;2024-03-02T00:51:01;15.20;51.10
51476;DHT22;37554;50.362;7.568;2024-03-02T00:53:30;15.20;51.10
51476;DHT22;37554;50.362;7.568;2024-03-02T00:55:56;15.20;51.10
51476;DHT22;37554;50.362;7.568;2024-03-02T00:58:22;15.20;51.10
51476;DHT22;37554;50.362;7.568;2024-03-02T01:00:48;15.20;51.10
51476;DHT22;37554;50.362;7.568;2024-03-02T01:03:13;15.20;51.10
51476;DHT22;37554;50.362;7.568;2024-03-02T01:05:42;15.20;51.10
51476;DHT22;37554;50.362;7.568;2024-03-02T01:08:09;15.20;51.10
51476;DHT22;37554;50.362;7.568;2024-03-02T01:10:35;15.20;51.10
51476;DHT22;37554;50.362;7.568;2024-03-02T01:13:01;15.20;51.10
51476;DHT22;37554;50.362;7.568;2024-03-02T01:15:27;15.20;51.10
51476;DHT22;37554;50.362;7.568;2024-03-02T01:17:52;15.10;51.10
51476;DHT22;37554;50.362;7.568;2024-03-02T01:20:18;15.20;51.20
51476;DHT22;37554;50.362;7.568;2024-03-02T01:22:43;15.10;51.10
51476;DHT22;37554;50.362;7.568;2024-03-02T01:25:09;15.10;51.10
51476;DHT22;37554;50.362;7.568;2024-03-02T01:27:35;15.10;51.10
51476;DHT22;37554;50.362;7.568;2024-03-02T01:30:01;15.10;51.10
51476;DHT22;37554;50.362;7.568;2024-03-02T01:32:26;15.20;51.20
51476;DHT22;37554;50.362;7.568;2024-03-02T01:34:52;15.10;51.20
51476;DHT22;37554;50.362;7.568;2024-03-02T01:37:18;15.10;51.20
51476;DHT22;37554;50.362;7.568;2024-03-02T01:39:43;15.10;51.20
51476;DHT22;37554;50.362;7.568;2024-03-02T01:42:09;15.10;51.20
51476;DHT22;37554;50.362;7.568;2024-03-02T01:44:36;15.10;51.30
51476;DHT22;37554;50.362;7.568;2024-03-02T01:47:01;15.10;51.20
51476;DHT22;37554;50.362;7.568;2024-03-02T01:49:27;15.10;51.20
51476;DHT22;37554;50.362;7.568;2024-03-02T01:51:53;15.10;51.20
51476;DHT22;37554;50.362;7.568;2024-03-02T01:54:19;15.10;51.20
51476;DHT22;37554;50.362;7.568;2024-03-02T01:56:44;15.10;51.20
51476;DHT22;37554;50.362;7.568;2024-03-02T01:59:10;15.00;51.20
51476;DHT22;37554;50.362;7.568;2024-03-02T02:01:37;15.00;51.20
51476;DHT22;37554;50.362;7.568;2024-03-02T02:04:02;15.00;51.30
51476;DHT22;37554;50.362;7.568;2024-03-02T02:06:28;15.00;51.20
51476;DHT22;37554;50.362;7.568;2024-03-02T02:08:53;15.00;51.20
51476;DHT22;37554;50.362;7.568;2024-03-02T02:11:19;15.00;51.30
51476;DHT22;37554;50.362;7.568;2024-03-02T02:13:44;15.00;51.30
51476;DHT22;37554;50.362;7.568;2024-03-02T02:16:10;14.90;51.30
51476;DHT22;37554;50.362;7.568;2024-03-02T02:18:36;14.90;51.30
51476;DHT22;37554;50.362;7.568;2024-03-02T02:21:02;15.00;51.40
51476;DHT22;37554;50.362;7.568;2024-03-02T02:23:28;14.90;51.40
51476;DHT22;37554;50.362;7.568;2024-03-02T02:25:53;14.90;52.00
51476;DHT22;37554;50.362;7.568;2024-03-02T02:28:19;14.90;51.40
51476;DHT22;37554;50.362;7.568;2024-03-02T02:30:45;14.90;51.40
51476;DHT22;37554;50.362;7.568;2024-03-02T02:33:11;14.90;51.40
51476;DHT22;37554;50.362;7.568;2024-03-02T02:35:36;14.90;51.50
51476;DHT22;37554;50.362;7.568;2024-03-02T02:38:02;14.90;51.40
51476;DHT22;37554;50.362;7.568;2024-03-02T02:40:28;14.80;51.50
51476;DHT22;37554;50.362;7.568;2024-03-02T02:42:57;14.80;51.50
51476;DHT22;37554;50.362;7.568;2024-03-02T02:45:24;14.80;51.50
51476;DHT22;37554;50.362;7.568;2024-03-02T02:47:50;14.80;51.50
51476;DHT22;37554;50.362;7.568;2024-03-02T02:50:15;14.80;51.50
51476;DHT22;37554;50.362;7.568;2024-03-02T02:52:42;14.80;51.60
51476;DHT22;37554;50.362;7.568;2024-03-02T02:55:09;14.80;51.60
51476;DHT22;37554;50.362;7.568;2024-03-02T02:57:35;14.80;51.70
51476;DHT22;37554;50.362;7.568;2024-03-02T03:00:13;14.80;51.70
51476;DHT22;37554;50.362;7.568;2024-03-02T03:02:47;14.70;51.60
51476;DHT22;37554;50.362;7.568;2024-03-02T03:05:14;14.80;51.70
51476;DHT22;37554;50.362;7.568;2024-03-02T03:07:40;14.70;51.60
51476;DHT22;37554;50.362;7.568;2024-03-02T03:10:07;14.70;51.60
51476;DHT22;37554;50.362;7.568;2024-03-02T03:12:36;14.70;51.70
51476;DHT22;37554;50.362;7.568;2024-03-02T03:15:02;14.70;51.70
51476;DHT22;37554;50.362;7.568;2024-03-02T03:17:29;14.70;51.70
51476;DHT22;37554;50.362;7.568;2024-03-02T03:19:55;14.70;52.00
51476;DHT22;37554;50.362;7.568;2024-03-02T03:22:21;14.70;51.80
51476;DHT22;37554;50.362;7.568;2024-03-02T03:24:46;14.60;51.80
51476;DHT22;37554;50.362;7.568;2024-03-02T03:27:12;14.60;51.90
51476;DHT22;37554;50.362;7.568;2024-03-02T03:29:38;14.60;51.90
51476;DHT22;37554;50.362;7.568;2024-03-02T03:32:04;14.60;51.90
51476;DHT22;37554;50.362;7.568;2024-03-02T03:34:32;14.60;52.00
51476;DHT22;37554;50.362;7.568;2024-03-02T03:36:58;14.60;52.00
51476;DHT22;37554;50.362;7.568;2024-03-02T03:39:23;14.60;52.10
51476;DHT22;37554;50.362;7.568;2024-03-02T03:41:49;14.50;52.10
51476;DHT22;37554;50.362;7.568;2024-03-02T03:44:15;14.50;52.10
51476;DHT22;37554;50.362;7.568;2024-03-02T03:46:41;14.50;52.20
51476;DHT22;37554;50.362;7.568;2024-03-02T03:49:06;14.50;52.20
51476;DHT22;37554;50.362;7.568;2024-03-02T03:51:33;14.50;52.20
51476;DHT22;37554;50.362;7.568;2024-03-02T03:53:59;14.50;52.90
51476;DHT22;37554;50.362;7.568;2024-03-02T03:56:25;14.50;52.20
51476;DHT22;37554;50.362;7.568;2024-03-02T03:58:50;14.50;52.30
51476;DHT22;37554;50.362;7.568;2024-03-02T04:01:16;14.40;52.20
51476;DHT22;37554;50.362;7.568;2024-03-02T04:03:41;14.50;52.40
51476;DHT22;37554;50.362;7.568;2024-03-02T04:06:07;14.40;52.40
51476;DHT22;37554;50.362;7.568;2024-03-02T04:08:32;14.40;52.40
51476;DHT22;37554;50.362;7.568;2024-03-02T04:10:58;14.40;52.50
51476;DHT22;37554;50.362;7.568;2024-03-02T04:13:23;14.40;52.50
51476;DHT22;37554;50.362;7.568;2024-03-02T04:15:49;14.40;52.50
51476;DHT22;37554;50.362;7.568;2024-03-02T04:18:14;14.40;52.50
51476;DHT22;37554;50.362;7.568;2024-03-02T04:20:40;14.40;52.60
51476;DHT22;37554;50.362;7.568;2024-03-02T04:23:05;14.40;52.60
51476;DHT22;37554;50.362;7.568;2024-03-02T04:25:31;14.40;52.60
51476;DHT22;37554;50.362;7.568;2024-03-02T04:27:57;14.40;52.60
51476;DHT22;37554;50.362;7.568;2024-03-02T04:30:22;14.40;52.60
51476;DHT22;37554;50.362;7.568;2024-03-02T04:32:48;14.40;53.30
51476;DHT22;37554;50.362;7.568;2024-03-02T04:35:14;14.30;52.70
51476;DHT22;37554;50.362;7.568;2024-03-02T04:37:40;14.30;52.80
51476;DHT22;37554;50.362;7.568;2024-03-02T04:40:06;14.30;52.70
51476;DHT22;37554;50.362;7.568;2024-03-02T04:42:35;14.30;52.80
51476;DHT22;37554;50.362;7.568;2024-03-02T04:45:01;14.30;52.80
51476;DHT22;37554;50.362;7.568;2024-03-02T04:47:26;14.30;52.80
51476;DHT22;37554;50.362;7.568;2024-03-02T04:49:52;14.30;52.80
51476;DHT22;37554;50.362;7.568;2024-03-02T04:52:18;14.30;52.80
51476;DHT22;37554;50.362;7.568;2024-03-02T04:54:44;14.30;52.80
51476;DHT22;37554;50.362;7.568;2024-03-02T04:57:28;14.30;52.80
51476;DHT22;37554;50.362;7.568;2024-03-02T04:59:53;14.30;52.80
51476;DHT22;37554;50.362;7.568;2024-03-02T05:02:19;14.30;53.50
51476;DHT22;37554;50.362;7.568;2024-03-02T05:04:45;14.30;52.90
51476;DHT22;37554;50.362;7.568;2024-03-02T05:07:10;14.30;52.90
51476;DHT22;37554;50.362;7.568;2024-03-02T05:09:36;14.30;52.90
51476;DHT22;37554;50.362;7.568;2024-03-02T05:12:01;14.30;52.90
51476;DHT22;37554;50.362;7.568;2024-03-02T05:14:37;14.30;52.90
51476;DHT22;37554;50.362;7.568;2024-03-02T05:17:04;14.30;53.00
51476;DHT22;37554;50.362;7.568;2024-03-02T05:19:29;14.20;52.90
51476;DHT22;37554;50.362;7.568;2024-03-02T05:21:55;14.20;53.00
51476;DHT22;37554;50.362;7.568;2024-03-02T05:24:20;14.20;53.10
51476;DHT22;37554;50.362;7.568;2024-03-02T05:26:46;14.20;53.10
51476;DHT22;37554;50.362;7.568;2024-03-02T05:29:11;14.10;53.10
51476;DHT22;37554;50.362;7.568;2024-03-02T05:31:37;14.10;53.10
51476;DHT22;37554;50.362;7.568;2024-03-02T05:34:03;14.10;53.10
51476;DHT22;37554;50.362;7.568;2024-03-02T05:36:28;14.20;53.20
51476;DHT22;37554;50.362;7.568;2024-03-02T05:38:54;14.10;53.20
51476;DHT22;37554;50.362;7.568;2024-03-02T05:41:20;14.10;53.20
51476;DHT22;37554;50.362;7.568;2024-03-02T05:43:46;14.10;53.20
51476;DHT22;37554;50.362;7.568;2024-03-02T05:46:11;14.10;53.30
51476;DHT22;37554;50.362;7.568;2024-03-02T05:48:37;14.10;53.30
51476;DHT22;37554;50.362;7.568;2024-03-02T05:51:03;14.00;53.20
51476;DHT22;37554;50.362;7.568;2024-03-02T05:53:28;14.00;53.30
51476;DHT22;37554;50.362;7.568;2024-03-02T05:55:54;14.00;53.30
51476;DHT22;37554;50.362;7.568;2024-03-02T05:58:21;14.00;53.30
51476;DHT22;37554;50.362;7.568;2024-03-02T06:00:50;14.00;53.40
51476;DHT22;37554;50.362;7.568;2024-03-02T06:03:15;14.00;53.40
51476;DHT22;37554;50.362;7.568;2024-03-02T06:05:41;14.00;53.40
51476;DHT22;37554;50.362;7.568;2024-03-02T06:08:06;14.00;53.40
51476;DHT22;37554;50.362;7.568;2024-03-02T06:10:33;14.00;53.50
51476;DHT22;37554;50.362;7.568;2024-03-02T06:12:58;14.00;53.50
51476;DHT22;37554;50.362;7.568;2024-03-02T06:15:24;14.00;53.50
51476;DHT22;37554;50.362;7.568;2024-03-02T06:17:50;14.00;53.50
51476;DHT22;37554;50.362;7.568;2024-03-02T06:20:15;14.00;53.50
51476;DHT22;37554;50.362;7.568;2024-03-02T06:22:41;14.00;53.50
51476;DHT22;37554;50.362;7.568;2024-03-02T06:25:07;14.00;53.50
51476;DHT22;37554;50.362;7.568;2024-03-02T06:27:32;14.00;53.40
51476;DHT22;37554;50.362;7.568;2024-03-02T06:29:58;14.00;53.40
51476;DHT22;37554;50.362;7.568;2024-03-02T06:32:23;14.10;53.50
51476;DHT22;37554;50.362;7.568;2024-03-02T06:34:50;14.00;53.40
51476;DHT22;37554;50.362;7.568;2024-03-02T06:37:16;14.10;53.40
51476;DHT22;37554;50.362;7.568;2024-03-02T06:39:42;14.10;53.40
51476;DHT22;37554;50.362;7.568;2024-03-02T06:42:07;14.10;54.00
51476;DHT22;37554;50.362;7.568;2024-03-02T06:44:34;14.10;53.40
51476;DHT22;37554;50.362;7.568;2024-03-02T06:46:59;14.10;53.30
51476;DHT22;37554;50.362;7.568;2024-03-02T06:49:25;14.10;53.30
51476;DHT22;37554;50.362;7.568;2024-03-02T06:51:50;14.10;53.30
51476;DHT22;37554;50.362;7.568;2024-03-02T06:54:16;14.10;53.30
51476;DHT22;37554;50.362;7.568;2024-03-02T06:56:41;14.20;53.30
51476;DHT22;37554;50.362;7.568;2024-03-02T06:59:07;14.10;53.30
51476;DHT22;37554;50.362;7.568;2024-03-02T07:01:32;14.10;53.20
51476;DHT22;37554;50.362;7.568;2024-03-02T07:03:58;14.20;53.30
51476;DHT22;37554;50.362;7.568;2024-03-02T07:06:23;14.20;53.20
51476;DHT22;37554;50.362;7.568;2024-03-02T07:08:50;14.20;53.20
51476;DHT22;37554;50.362;7.568;2024-03-02T07:11:15;14.20;53.20
51476;DHT22;37554;50.362;7.568;2024-03-02T07:13:41;14.30;53.20
51476;DHT22;37554;50.362;7.568;2024-03-02T07:16:06;14.30;53.10
51476;DHT22;37554;50.362;7.568;2024-03-02T07:18:53;14.30;53.10
51476;DHT22;37554;50.362;7.568;2024-03-02T07:21:20;14.30;53.10
51476;DHT22;37554;50.362;7.568;2024-03-02T07:23:47;14.30;53.00
51476;DHT22;37554;50.362;7.568;2024-03-02T07:26:13;14.40;53.00
51476;DHT22;37554;50.362;7.568;2024-03-02T07:28:41;14.40;52.90
51476;DHT22;37554;50.362;7.568;2024-03-02T07:31:07;14.40;52.80
51476;DHT22;37554;50.362;7.568;2024-03-02T07:33:33;14.20;52.70
51476;DHT22;37554;50.362;7.568;2024-03-02T07:35:59;14.00;52.80
51476;DHT22;37554;50.362;7.568;2024-03-02T07:38:26;13.90;53.10
51476;DHT22;37554;50.362;7.568;2024-03-02T07:40:52;14.00;53.50
51476;DHT22;37554;50.362;7.568;2024-03-02T07:43:21;14.10;53.80
51476;DHT22;37554;50.362;7.568;2024-03-02T07:45:47;14.20;53.70
51476;DHT22;37554;50.362;7.568;2024-03-02T07:48:14;14.40;53.50
51476;DHT22;37554;50.362;7.568;2024-03-02T07:50:40;14.50;53.30
51476;DHT22;37554;50.362;7.568;2024-03-02T07:53:06;14.60;53.10
51476;DHT22;37554;50.362;7.568;2024-03-02T07:55:33;14.70;53.00
51476;DHT22;37554;50.362;7.568;2024-03-02T07:57:59;14.80;52.90
51476;DHT22;37554;50.362;7.568;2024-03-02T08:00:25;14.90;52.80
51476;DHT22;37554;50.362;7.568;2024-03-02T08:02:51;15.00;52.60
51476;DHT22;37554;50.362;7.568;2024-03-02T08:05:18;15.10;52.50
51476;DHT22;37554;50.362;7.568;2024-03-02T08:07:46;15.20;52.40
51476;DHT22;37554;50.362;7.568;2024-03-02T08:10:12;15.30;52.30
51476;DHT22;37554;50.362;7.568;2024-03-02T08:12:39;15.40;52.10
51476;DHT22;37554;50.362;7.568;2024-03-02T08:15:06;15.50;52.00
51476;DHT22;37554;50.362;7.568;2024-03-02T08:17:31;15.60;51.90
51476;DHT22;37554;50.362;7.568;2024-03-02T08:19:58;15.60;51.80
51476;DHT22;37554;50.362;7.568;2024-03-02T08:22:23;15.80;52.50
51476;DHT22;37554;50.362;7.568;2024-03-02T08:24:51;15.90;51.70
51476;DHT22;37554;50.362;7.568;2024-03-02T08:27:17;16.10;51.70
51476;DHT22;37554;50.362;7.568;2024-03-02T08:29:43;16.20;51.60
51476;DHT22;37554;50.362;7.568;2024-03-02T08:32:09;16.30;51.40
51476;DHT22;37554;50.362;7.568;2024-03-02T08:34:34;16.40;51.30
51476;DHT22;37554;50.362;7.568;2024-03-02T08:37:01;16.60;51.20
51476;DHT22;37554;50.362;7.568;2024-03-02T08:39:27;16.70;50.90
51476;DHT22;37554;50.362;7.568;2024-03-02T08:41:53;16.90;50.70
51476;DHT22;37554;50.362;7.568;2024-03-02T08:44:19;17.10;50.60
51476;DHT22;37554;50.362;7.568;2024-03-02T08:46:45;17.30;50.30
51476;DHT22;37554;50.362;7.568;2024-03-02T08:49:11;17.50;50.00
51476;DHT22;37554;50.362;7.568;2024-03-02T08:51:37;17.60;50.00
51476;DHT22;37554;50.362;7.568;2024-03-02T08:54:03;17.80;50.00
51476;DHT22;37554;50.362;7.568;2024-03-02T08:56:30;18.00;49.90
51476;DHT22;37554;50.362;7.568;2024-03-02T08:58:56;18.10;49.70
51476;DHT22;37554;50.362;7.568;2024-03-02T09:01:22;18.30;49.40
51476;DHT22;37554;50.362;7.568;2024-03-02T09:03:48;18.50;49.10
51476;DHT22;37554;50.362;7.568;2024-03-02T09:06:15;18.80;48.70
51476;DHT22;37554;50.362;7.568;2024-03-02T09:08:43;19.00;48.30
51476;DHT22;37554;50.362;7.568;2024-03-02T09:11:10;19.30;47.80
51476;DHT22;37554;50.362;7.568;2024-03-02T09:13:36;19.70;47.40
51476;DHT22;37554;50.362;7.568;2024-03-02T09:16:03;20.00;47.00
51476;DHT22;37554;50.362;7.568;2024-03-02T09:18:29;20.20;46.50
51476;DHT22;37554;50.362;7.568;2024-03-02T09:20:54;20.50;46.10
51476;DHT22;37554;50.362;7.568;2024-03-02T09:23:20;20.80;45.70
51476;DHT22;37554;50.362;7.568;2024-03-02T09:25:46;20.50;44.50
51476;DHT22;37554;50.362;7.568;2024-03-02T09:28:12;19.80;44.30
51476;DHT22;37554;50.362;7.568;2024-03-02T09:30:38;19.30;45.20
51476;DHT22;37554;50.362;7.568;2024-03-02T09:33:04;18.90;44.90
51476;DHT22;37554;50.362;7.568;2024-03-02T09:35:30;18.60;45.30
51476;DHT22;37554;50.362;7.568;2024-03-02T09:37:55;18.40;45.20
51476;DHT22;37554;50.362;7.568;2024-03-02T09:40:24;18.40;45.20
51476;DHT22;37554;50.362;7.568;2024-03-02T09:42:51;18.30;45.60
51476;DHT22;37554;50.362;7.568;2024-03-02T09:45:24;18.40;45.80
51476;DHT22;37554;50.362;7.568;2024-03-02T09:47:50;18.50;45.80
51476;DHT22;37554;50.362;7.568;2024-03-02T09:50:16;18.50;45.20
51476;DHT22;37554;50.362;7.568;2024-03-02T09:52:43;18.60;44.70
51476;DHT22;37554;50.362;7.568;2024-03-02T09:55:09;18.70;44.60
51476;DHT22;37554;50.362;7.568;2024-03-02T09:57:35;18.70;44.20
51476;DHT22;37554;50.362;7.568;2024-03-02T10:00:00;18.70;44.30
51476;DHT22;37554;50.362;7.568;2024-03-02T10:02:26;18.80;44.20
51476;DHT22;37554;50.362;7.568;2024-03-02T10:04:52;18.80;44.40
51476;DHT22;37554;50.362;7.568;2024-03-02T10:07:18;18.90;44.30
51476;DHT22;37554;50.362;7.568;2024-03-02T10:09:46;18.90;44.10
51476;DHT22;37554;50.362;7.568;2024-03-02T10:12:15;19.10;44.20
51476;DHT22;37554;50.362;7.568;2024-03-02T10:14:41;19.60;43.60
51476;DHT22;37554;50.362;7.568;2024-03-02T10:17:11;20.00;42.80
51476;DHT22;37554;50.362;7.568;2024-03-02T10:19:38;20.50;42.00
51476;DHT22;37554;50.362;7.568;2024-03-02T10:22:06;20.80;41.50
51476;DHT22;37554;50.362;7.568;2024-03-02T10:24:36;21.10;41.10
51476;DHT22;37554;50.362;7.568;2024-03-02T10:29:39;21.50;40.70
51476;DHT22;37554;50.362;7.568;2024-03-02T10:32:05;21.80;40.30
51476;DHT22;37554;50.362;7.568;2024-03-02T10:34:32;22.00;39.90
51476;DHT22;37554;50.362;7.568;2024-03-02T10:36:58;22.30;39.40
51476;DHT22;37554;50.362;7.568;2024-03-02T10:39:24;22.50;39.00
51476;DHT22;37554;50.362;7.568;2024-03-02T10:41:52;22.80;38.80
51476;DHT22;37554;50.362;7.568;2024-03-02T10:44:19;23.00;38.30
51476;DHT22;37554;50.362;7.568;2024-03-02T10:46:45;23.20;38.10
51476;DHT22;37554;50.362;7.568;2024-03-02T10:49:12;23.40;37.80
51476;DHT22;37554;50.362;7.568;2024-03-02T10:51:38;23.30;37.60
51476;DHT22;37554;50.362;7.568;2024-03-02T10:54:04;23.30;37.60
51476;DHT22;37554;50.362;7.568;2024-03-02T10:56:41;23.10;37.60
51476;DHT22;37554;50.362;7.568;2024-03-02T10:59:35;22.90;37.70
51476;DHT22;37554;50.362;7.568;2024-03-02T11:02:03;22.60;37.40
51476;DHT22;37554;50.362;7.568;2024-03-02T11:04:30;22.30;38.30
51476;DHT22;37554;50.362;7.568;2024-03-02T11:07:07;22.10;38.60
51476;DHT22;37554;50.362;7.568;2024-03-02T11:09:36;22.20;38.60
51476;DHT22;37554;50.362;7.568;2024-03-02T11:12:06;22.30;38.80
51476;DHT22;37554;50.362;7.568;2024-03-02T11:14:40;22.50;38.80
51476;DHT22;37554;50.362;7.568;2024-03-02T11:17:08;22.80;38.60
51476;DHT22;37554;50.362;7.568;2024-03-02T11:19:34;23.10;38.10
51476;DHT22;37554;50.362;7.568;2024-03-02T11:22:02;23.20;37.70
51476;DHT22;37554;50.362;7.568;2024-03-02T11:24:30;23.30;37.60
51476;DHT22;37554;50.362;7.568;2024-03-02T11:27:02;23.30;37.90
51476;DHT22;37554;50.362;7.568;2024-03-02T11:34:42;23.30;37.40
51476;DHT22;37554;50.362;7.568;2024-03-02T11:37:12;23.60;37.00
51476;DHT22;37554;50.362;7.568;2024-03-02T11:39:39;23.80;36.70
51476;DHT22;37554;50.362;7.568;2024-03-02T11:42:08;24.10;36.30
51476;DHT22;37554;50.362;7.568;2024-03-02T11:44:37;23.80;36.30
51476;DHT22;37554;50.362;7.568;2024-03-02T11:47:06;23.60;36.50
51476;DHT22;37554;50.362;7.568;2024-03-02T11:49:54;23.70;36.50
51476;DHT22;37554;50.362;7.568;2024-03-02T11:52:20;23.60;36.30
51476;DHT22;37554;50.362;7.568;2024-03-02T11:54:48;23.60;36.70
51476;DHT22;37554;50.362;7.568;2024-03-02T11:57:15;24.70;35.70
51476;DHT22;37554;50.362;7.568;2024-03-02T11:59:42;25.90;34.60
51476;DHT22;37554;50.362;7.568;2024-03-02T12:02:15;26.80;33.50
51476;DHT22;37554;50.362;7.568;2024-03-02T12:04:42;27.50;32.50
51476;DHT22;37554;50.362;7.568;2024-03-02T12:07:08;27.90;32.20
51476;DHT22;37554;50.362;7.568;2024-03-02T12:09:34;28.00;31.80
51476;DHT22;37554;50.362;7.568;2024-03-02T12:12:03;27.20;31.90
51476;DHT22;37554;50.362;7.568;2024-03-02T12:14:30;26.40;32.60
51476;DHT22;37554;50.362;7.568;2024-03-02T12:16:55;25.90;33.00
51476;DHT22;37554;50.362;7.568;2024-03-02T12:19:24;26.10;33.10
51476;DHT22;37554;50.362;7.568;2024-03-02T12:21:50;26.60;32.90
51476;DHT22;37554;50.362;7.568;2024-03-02T12:24:15;26.70;32.60
51476;DHT22;37554;50.362;7.568;2024-03-02T12:26:42;26.70;32.40
51476;DHT22;37554;50.362;7.568;2024-03-02T12:29:07;26.40;32.60
51476;DHT22;37554;50.362;7.568;2024-03-02T12:31:34;26.30;32.70
51476;DHT22;37554;50.362;7.568;2024-03-02T12:34:01;26.40;32.60
51476;DHT22;37554;50.362;7.568;2024-03-02T12:36:27;26.10;32.60
51476;DHT22;37554;50.362;7.568;2024-03-02T12:38:53;25.70;32.70
51476;DHT22;37554;50.362;7.568;2024-03-02T12:41:20;25.40;33.60
51476;DHT22;37554;50.362;7.568;2024-03-02T12:43:45;25.10;33.20
51476;DHT22;37554;50.362;7.568;2024-03-02T12:46:11;24.80;33.30
51476;DHT22;37554;50.362;7.568;2024-03-02T12:48:37;24.50;33.60
51476;DHT22;37554;50.362;7.568;2024-03-02T12:51:06;24.40;33.80
51476;DHT22;37554;50.362;7.568;2024-03-02T12:53:32;24.20;34.00
51476;DHT22;37554;50.362;7.568;2024-03-02T12:55:58;24.10;34.10
51476;DHT22;37554;50.362;7.568;2024-03-02T12:58:24;24.10;34.20
51476;DHT22;37554;50.362;7.568;2024-03-02T13:00:49;24.30;34.30
51476;DHT22;37554;50.362;7.568;2024-03-02T13:03:17;24.50;34.20
51476;DHT22;37554;50.362;7.568;2024-03-02T13:05:48;24.70;34.10
51476;DHT22;37554;50.362;7.568;2024-03-02T13:08:15;25.00;33.80
51476;DHT22;37554;50.362;7.568;2024-03-02T13:10:40;25.20;33.50
51476;DHT22;37554;50.362;7.568;2024-03-02T13:13:06;25.40;33.40
51476;DHT22;37554;50.362;7.568;2024-03-02T13:15:33;25.50;33.00
51476;DHT22;37554;50.362;7.568;2024-03-02T13:17:59;25.70;33.00
51476;DHT22;37554;50.362;7.568;2024-03-02T13:20:32;25.80;32.80
51476;DHT22;37554;50.362;7.568;2024-03-02T13:22:57;25.90;32.60
51476;DHT22;37554;50.362;7.568;2024-03-02T13:25:23;25.90;32.60
51476;DHT22;37554;50.362;7.568;2024-03-02T13:27:49;25.90;32.50
51476;DHT22;37554;50.362;7.568;2024-03-02T13:30:14;26.00;32.40
51476;DHT22;37554;50.362;7.568;2024-03-02T13:32:40;26.10;32.30
51476;DHT22;37554;50.362;7.568;2024-03-02T13:35:06;26.20;32.20
51476;DHT22;37554;50.362;7.568;2024-03-02T13:37:32;26.40;32.10
51476;DHT22;37554;50.362;7.568;2024-03-02T13:39:57;26.70;32.10
51476;DHT22;37554;50.362;7.568;2024-03-02T13:42:23;26.80;31.80
51476;DHT22;37554;50.362;7.568;2024-03-02T13:44:49;27.00;31.70
51476;DHT22;37554;50.362;7.568;2024-03-02T13:47:16;27.00;31.50
51476;DHT22;37554;50.362;7.568;2024-03-02T13:49:42;27.00;31.40
51476;DHT22;37554;50.362;7.568;2024-03-02T13:52:12;26.90;31.30
51476;DHT22;37554;50.362;7.568;2024-03-02T13:54:41;27.00;31.20
51476;DHT22;37554;50.362;7.568;2024-03-02T13:57:08;26.90;31.20
51476;DHT22;37554;50.362;7.568;2024-03-02T13:59:34;26.80;31.20
51476;DHT22;37554;50.362;7.568;2024-03-02T14:02:01;26.70;31.20
51476;DHT22;37554;50.362;7.568;2024-03-02T14:04:27;26.70;31.30
51476;DHT22;37554;50.362;7.568;2024-03-02T14:06:52;26.60;31.20
51476;DHT22;37554;50.362;7.568;2024-03-02T14:09:18;26.50;32.00
51476;DHT22;37554;50.362;7.568;2024-03-02T14:11:46;26.40;31.30
51476;DHT22;37554;50.362;7.568;2024-03-02T14:14:11;26.30;31.40
51476;DHT22;37554;50.362;7.568;2024-03-02T14:16:37;26.00;31.50
51476;DHT22;37554;50.362;7.568;2024-03-02T14:19:02;25.80;31.70
51476;DHT22;37554;50.362;7.568;2024-03-02T14:21:30;25.60;31.80
51476;DHT22;37554;50.362;7.568;2024-03-02T14:23:55;25.40;31.90
51476;DHT22;37554;50.362;7.568;2024-03-02T14:26:21;25.30;32.10
51476;DHT22;37554;50.362;7.568;2024-03-02T14:28:47;25.10;32.10
51476;DHT22;37554;50.362;7.568;2024-03-02T14:31:12;25.10;32.20
51476;DHT22;37554;50.362;7.568;2024-03-02T14:33:38;24.90;32.30
51476;DHT22;37554;50.362;7.568;2024-03-02T14:36:04;24.80;32.50
51476;DHT22;37554;50.362;7.568;2024-03-02T14:38:30;24.60;32.50
51476;DHT22;37554;50.362;7.568;2024-03-02T14:40:56;24.50;32.60
51476;DHT22;37554;50.362;7.568;2024-03-02T14:43:22;24.40;32.80
51476;DHT22;37554;50.362;7.568;2024-03-02T14:45:48;24.30;32.90
51476;DHT22;37554;50.362;7.568;2024-03-02T14:48:16;24.10;33.00
51476;DHT22;37554;50.362;7.568;2024-03-02T14:50:47;24.00;33.10
51476;DHT22;37554;50.362;7.568;2024-03-02T14:53:13;24.00;33.40
51476;DHT22;37554;50.362;7.568;2024-03-02T14:55:38;24.00;33.60
51476;DHT22;37554;50.362;7.568;2024-03-02T14:58:04;24.00;33.90
51476;DHT22;37554;50.362;7.568;2024-03-02T15:00:29;24.10;34.30
51476;DHT22;37554;50.362;7.568;2024-03-02T15:02:55;24.00;34.40
51476;DHT22;37554;50.362;7.568;2024-03-02T15:05:21;24.00;34.60
51476;DHT22;37554;50.362;7.568;2024-03-02T15:07:46;24.00;34.80
51476;DHT22;37554;50.362;7.568;2024-03-02T15:10:12;24.00;35.00
51476;DHT22;37554;50.362;7.568;2024-03-02T15:12:38;24.00;35.80
51476;DHT22;37554;50.362;7.568;2024-03-02T15:15:04;24.00;35.30
51476;DHT22;37554;50.362;7.568;2024-03-02T15:17:30;24.00;35.60
51476;DHT22;37554;50.362;7.568;2024-03-02T15:19:55;24.00;35.80
51476;DHT22;37554;50.362;7.568;2024-03-02T15:22:21;23.90;35.90
51476;DHT22;37554;50.362;7.568;2024-03-02T15:24:46;23.90;36.20
51476;DHT22;37554;50.362;7.568;2024-03-02T15:27:12;23.80;36.40
51476;DHT22;37554;50.362;7.568;2024-03-02T15:29:38;23.70;36.60
51476;DHT22;37554;50.362;7.568;2024-03-02T15:32:03;23.70;36.80
51476;DHT22;37554;50.362;7.568;2024-03-02T15:34:35;23.60;37.00
51476;DHT22;37554;50.362;7.568;2024-03-02T15:37:01;23.60;37.20